Observations for Trim Patrick St
| Time | AQI | Temp °C | Hum % | Pres Pa | CO μg/m³ | H₂S μg/m³ | NO μg/m³ | NO₂ μg/m³ | O₃ μg/m³ | SO₂ μg/m³ | PM1 μg/m³ | PM2.5 μg/m³ | PM10 μg/m³ |
|---|---|---|---|---|---|---|---|---|---|---|---|---|---|
| Thursday 27 August 2026 | |||||||||||||
| 21:25 | 3 | 17.8 | 85 | 38,460 | 0.09 | 3.5 | 0.78 | 14.06 | 42.72 | 0.08 | 19.14 | 26.22 | 28.84 |
| 21:24 | 3 | 17.8 | 85 | 38,460 | 0.09 | 3.5 | 0.86 | 13.58 | 41.46 | 0 | 18.29 | 27.61 | 28.42 |
| 21:23 | 3 | 17.8 | 85 | 38,460 | 0.1 | 3.08 | 0.82 | 13.87 | 40.26 | 0.36 | 20 | 28.3 | 31.13 |
| 21:22 | 3 | 17.8 | 85 | 38,460 | 0.1 | 3 | 1.08 | 14.46 | 40.3 | 0 | 19.14 | 26.92 | 29.61 |
| 21:21 | 3 | 17.9 | 85 | 38,460 | 0.09 | 2.92 | 1.06 | 13.59 | 41.69 | 0 | 17.43 | 24.18 | 26.59 |
| 21:20 | 3 | 17.8 | 85 | 38,460 | 0.1 | 3.76 | 1.25 | 16.17 | 40.15 | 0 | 20 | 26.24 | 28.87 |
| 21:19 | 3 | 17.9 | 85 | 38,460 | 0.09 | 3.36 | 1.16 | 13.34 | 40.79 | 0.39 | 18.29 | 26.24 | 28.87 |
| 21:18 | 3 | 17.9 | 85 | 38,460 | 0.1 | 3.18 | 1.29 | 13.72 | 40.9 | 0.31 | 18.29 | 27.63 | 30.4 |
| 21:17 | 3 | 17.9 | 85 | 38,460 | 0.08 | 3.57 | 1.21 | 14.55 | 38.87 | 0.12 | 16.57 | 24.87 | 27.35 |
| 21:16 | 3 | 17.9 | 85 | 38,460 | 0.09 | 2.6 | 1.25 | 13.43 | 43.79 | 0 | 19.14 | 26.26 | 28.88 |
| 21:15 | 3 | 17.9 | 85 | 38,460 | 0.08 | 2.94 | 1.26 | 13.71 | 40.9 | 0 | 18.29 | 26.26 | 28.88 |
| 21:14 | 3 | 17.9 | 85 | 38,460 | 0.08 | 3.52 | 1.18 | 15.34 | 39.65 | 0.29 | 18.29 | 25.57 | 28.12 |
| 21:13 | 3 | 17.9 | 85 | 38,460 | 0.08 | 3.21 | 1.28 | 15.97 | 38.94 | 0.23 | 18.29 | 26.26 | 28.88 |
| 21:12 | 3 | 17.9 | 85 | 38,460 | 0.09 | 3.99 | 1.14 | 16.27 | 38.15 | 0.79 | 20.86 | 27.65 | 28.51 |
| 21:11 | 3 | 18 | 85 | 38,460 | 0.1 | 3.91 | 1.04 | 22.65 | 32.4 | 0.42 | 18.29 | 27.63 | 30.4 |
| 21:10 | 3 | 18 | 85 | 38,460 | 0.11 | 4.65 | 0.98 | 43.5 | 17.43 | 1.54 | 20 | 27.65 | 30.41 |
| 21:09 | 3 | 18 | 85 | 38,460 | 0.1 | 4.7 | 1.09 | 22.12 | 34.7 | 0.06 | 19.14 | 26.27 | 28.9 |
| 21:08 | 3 | 18 | 85 | 38,460 | 0.12 | 5.54 | 1.12 | 19.99 | 42.27 | 0 | 18.29 | 26.28 | 26.58 |
| 21:07 | 3 | 17.9 | 85 | 38,460 | 0.1 | 4.54 | 1.21 | 21.33 | 37.65 | 0 | 19.14 | 25.59 | 28.15 |
| 21:06 | 3 | 18 | 85 | 38,460 | 0.08 | 3.76 | 1.24 | 14.09 | 41.11 | 0.35 | 19.14 | 26.97 | 27.23 |